Chucky, Tennessee
Current Conditions -  °F | °C
As of 2:53 AM on Friday 31 Oct 2014 (Local Time) from KTRI Reporting Station
Scattered Clouds Scattered Clouds  
Wind Chill: 37°   Ceiling: Unl
Heat Index: 37°   Visibility: 10mi
Dew Point: 36°   Wind: 3mph
Humidity: 96%   Direction: 360°N
Pressure: 30"   Gusts: NA
Location:  36.249°N, 82.6746°W
Report Text: KTRI 310653Z 36003KT 10SM FEW030 SCT250 03/02 A3000 RMK AO2 SLP149 T00280022
Loading
Personal Weather Stations






























Interactive Weather Map
Tropical Storm Tracking
New forecast layout! Learn more

10-Day Weather Forecast

Advertisements
Track Severe Weather on mobile